Time;durP1;ratioP1;P1;durP2;ratioP2;P2;SDS_P1;SDS_P2;PMS_P1;PMS_P2;Temp;Humidity;BMP_temperature;BMP_pressure;BME280_temperature;BME280_humidity;BME280_pressure;Samples;Min_cycle;Max_cycle;Signal;HPM_P1;HPM_P2
2023/03/23 00:01:19;;;;;;;;;2.00;2.00;;;;;14.22;59.84;100206.06;4999214;28;45246;-63
2023/03/23 00:03:47;;;;;;;;;2.25;2.25;;;;;14.22;59.95;100211.34;4999741;28;45448;-63
2023/03/23 00:06:17;;;;;;;;;1.00;1.00;;;;;14.20;59.84;100229.03;4998716;27;45473;-63
2023/03/23 00:08:45;;;;;;;;;3.25;3.25;;;;;14.19;59.81;100222.91;4998431;27;47384;-63
2023/03/23 00:11:22;;;;;;;;;1.00;1.00;;;;;14.14;60.03;100227.50;4998685;27;45453;-64
2023/03/23 00:13:53;;;;;;;;;2.00;2.00;;;;;14.11;60.01;100220.56;5015373;28;45346;-64
2023/03/23 00:16:31;;;;;;;;;2.00;2.00;;;;;14.11;60.07;100232.88;5015112;27;45395;-64
2023/03/23 00:19:13;;;;;;;;;2.25;2.25;;;;;14.05;59.99;100212.84;5014941;28;46825;-64
2023/03/23 00:21:41;;;;;;;;;0.50;0.00;;;;;14.03;59.65;100205.91;5017200;28;45579;-63
2023/03/23 00:24:09;;;;;;;;;1.00;0.00;;;;;14.03;59.34;100197.97;4999079;28;45285;-64
2023/03/23 00:26:40;;;;;;;;;4.00;2.00;;;;;14.00;59.46;100212.16;5002475;28;45177;-64
2023/03/23 00:29:13;;;;;;;;;1.00;1.00;;;;;14.01;59.50;100208.56;5018561;27;47391;-63
2023/03/23 00:31:39;;;;;;;;;1.75;1.00;;;;;13.96;59.87;100206.13;4999589;28;46532;-64
2023/03/23 00:34:04;;;;;;;;;3.25;2.00;;;;;14.00;60.14;100221.84;5000531;27;45415;-64
2023/03/23 00:36:34;;;;;;;;;2.00;2.00;;;;;13.95;59.87;100190.34;5014939;27;45281;-64
2023/03/23 00:39:01;;;;;;;;;1.75;1.25;;;;;13.96;59.99;100211.41;4998696;28;46293;-63
2023/03/23 00:41:27;;;;;;;;;3.00;2.00;;;;;13.94;59.56;100215.88;4998717;28;45489;-63
2023/03/23 00:43:57;;;;;;;;;1.00;1.00;;;;;13.94;59.87;100207.94;5003661;27;45433;-63
2023/03/23 00:46:24;;;;;;;;;2.00;2.00;;;;;13.92;59.84;100211.56;5012855;28;45565;-64
2023/03/23 00:48:51;;;;;;;;;3.25;2.50;;;;;13.88;59.56;100194.97;5013680;28;46975;-63
2023/03/23 00:51:18;;;;;;;;;1.25;1.25;;;;;13.82;59.47;100195.19;5015171;28;45548;-64
2023/03/23 00:53:45;;;;;;;;;5.50;4.50;;;;;13.84;59.70;100190.72;5012770;28;45461;-64
2023/03/23 00:56:11;;;;;;;;;1.00;1.00;;;;;13.86;60.20;100196.81;5000853;28;45483;-65
2023/03/23 00:58:37;;;;;;;;;2.00;2.00;;;;;13.81;60.11;100181.13;5013606;28;46768;-64
2023/03/23 01:01:04;;;;;;;;;2.00;2.00;;;;;13.81;60.04;100186.41;4997080;28;45341;-64
2023/03/23 01:03:30;;;;;;;;;2.00;2.00;;;;;13.81;60.11;100167.94;4998723;28;45260;-64
2023/03/23 01:05:55;;;;;;;;;3.50;3.50;;;;;13.84;59.70;100197.78;4999393;28;45552;-64
2023/03/23 01:08:22;;;;;;;;;4.00;4.00;;;;;13.81;59.89;100189.06;4995684;28;46417;-64
2023/03/23 01:10:49;;;;;;;;;3.00;3.00;;;;;13.79;60.18;100179.47;4993652;28;45429;-64
2023/03/23 01:13:15;;;;;;;;;4.25;2.25;;;;;13.79;59.98;100190.03;4995775;28;45410;-64
2023/03/23 01:15:41;;;;;;;;;2.00;0.00;;;;;13.80;59.86;100183.84;4996977;28;45359;-63
2023/03/23 01:18:08;;;;;;;;;2.25;2.25;;;;;13.84;60.02;100187.22;4996856;28;47482;-63
2023/03/23 01:20:35;;;;;;;;;2.00;2.00;;;;;13.85;60.27;100207.41;4995513;28;45449;-64
2023/03/23 01:23:01;;;;;;;;;3.25;2.25;;;;;13.83;59.89;100212.75;4996753;27;45476;-64
2023/03/23 01:25:29;;;;;;;;;3.50;2.75;;;;;13.84;60.04;100226.84;4994261;27;45448;-63
2023/03/23 01:27:55;;;;;;;;;3.50;2.25;;;;;13.84;60.09;100208.34;4996759;28;45736;-64
2023/03/23 01:30:20;;;;;;;;;1.75;1.75;;;;;13.83;59.74;100196.91;4996206;27;45474;-64
2023/03/23 01:32:46;;;;;;;;;4.50;3.00;;;;;13.76;60.12;100190.13;4996876;27;45330;-63
2023/03/23 01:35:15;;;;;;;;;2.00;1.50;;;;;13.79;60.28;100200.59;4996879;28;45336;-64
2023/03/23 01:37:41;;;;;;;;;2.50;2.00;;;;;13.80;60.37;100212.88;4996515;28;46205;-63
2023/03/23 01:40:07;;;;;;;;;2.75;2.75;;;;;13.77;59.69;100207.69;4993662;28;45544;-63
2023/03/23 01:42:35;;;;;;;;;4.50;4.50;;;;;13.82;60.17;100201.34;4982458;27;45448;-63
2023/03/23 01:45:19;;;;;;;;;4.00;2.00;;;;;13.78;60.44;100188.31;4991501;27;46456;-63
2023/03/23 01:47:47;;;;;;;;;2.25;2.00;;;;;13.79;60.04;100171.53;4991724;28;48302;-63
2023/03/23 01:50:12;;;;;;;;;2.00;2.00;;;;;13.77;60.43;100162.81;4989258;28;45287;-63
2023/03/23 01:52:39;;;;;;;;;3.00;2.00;;;;;13.70;60.41;100156.00;5007888;27;45846;-65
2023/03/23 01:55:05;;;;;;;;;2.00;2.00;;;;;13.71;60.14;100169.19;4990174;28;45955;-63
2023/03/23 01:57:31;;;;;;;;;1.00;1.00;;;;;13.77;60.16;100149.59;4990229;28;45464;-63
2023/03/23 02:00:07;;;;;;;;;4.00;3.00;;;;;13.73;60.10;100142.72;4989736;28;45324;-63
2023/03/23 02:02:35;;;;;;;;;2.00;2.00;;;;;13.71;60.42;100148.06;4989309;28;46495;-63
2023/03/23 02:05:07;;;;;;;;;3.75;2.25;;;;;13.67;60.32;100142.94;4989924;28;45326;-63
2023/03/23 02:07:34;;;;;;;;;2.50;2.50;;;;;13.73;60.30;100145.34;4989888;28;46419;-63
2023/03/23 02:10:00;;;;;;;;;1.00;1.00;;;;;13.73;60.38;100135.66;4989610;28;45761;-63
2023/03/23 02:12:25;;;;;;;;;1.00;1.00;;;;;13.72;60.56;100136.59;4994500;28;45484;-63
2023/03/23 02:14:51;;;;;;;;;2.25;1.25;;;;;13.68;60.58;100134.09;4995223;28;45495;-63
2023/03/23 02:17:19;;;;;;;;;1.50;1.50;;;;;13.68;60.70;100147.31;4996400;28;45426;-64
2023/03/23 02:20:20;;;;;;;;;2.00;2.00;;;;;13.69;60.92;100133.19;4992935;27;45214;-63
2023/03/23 02:23:12;;;;;;;;;1.50;1.50;;;;;13.72;60.23;100155.06;4950933;28;45501;-64
2023/03/23 02:26:02;;;;;;;;;1.00;1.00;;;;;13.70;60.51;100178.03;4989514;28;45520;-64
2023/03/23 02:28:35;;;;;;;;;1.50;1.50;;;;;13.70;60.15;100161.28;4990845;28;47045;-64
2023/03/23 02:31:05;;;;;;;;;0.00;0.00;;;;;13.67;61.08;100161.41;4997425;28;45395;-63
2023/03/23 02:33:44;;;;;;;;;2.25;2.00;;;;;13.70;60.81;100167.47;4997907;28;45378;-63
2023/03/23 02:36:43;;;;;;;;;2.75;2.75;;;;;13.68;60.22;100173.72;4983538;28;45487;-64
2023/03/23 02:39:13;;;;;;;;;2.75;2.00;;;;;13.67;60.56;100167.56;4992815;28;45337;-64
2023/03/23 02:41:46;;;;;;;;;2.75;1.50;;;;;13.67;60.92;100164.06;4997382;28;45317;-63
2023/03/23 02:44:14;;;;;;;;;1.00;1.00;;;;;13.69;60.74;100170.16;4996046;27;45403;-63
2023/03/23 02:46:42;;;;;;;;;5.00;2.50;;;;;13.71;60.72;100186.78;4996943;28;45328;-63
2023/03/23 02:49:10;;;;;;;;;1.75;1.75;;;;;13.66;60.65;100173.78;4984201;28;45341;-63
2023/03/23 02:51:37;;;;;;;;;1.75;1.75;;;;;13.66;60.53;100186.97;4997292;28;45381;-63
2023/03/23 02:54:05;;;;;;;;;2.00;2.00;;;;;13.68;60.54;100179.00;4997122;28;45268;-64
2023/03/23 02:56:32;;;;;;;;;2.00;2.00;;;;;13.63;60.81;100179.16;4997201;28;45336;-64
2023/03/23 02:58:58;;;;;;;;;2.25;1.75;;;;;13.67;60.87;100179.91;4996691;28;45251;-63
2023/03/23 03:01:28;;;;;;;;;3.00;2.00;;;;;13.64;60.84;100171.16;4997010;28;45507;-64
2023/03/23 03:03:57;;;;;;;;;2.75;2.75;;;;;13.68;60.41;100176.34;4996172;28;45382;-63
2023/03/23 03:06:30;;;;;;;;;3.00;2.50;;;;;13.70;60.36;100164.81;4997022;28;45530;-63
2023/03/23 03:09:19;;;;;;;;;2.00;2.00;;;;;13.69;60.88;100164.88;4996621;28;45314;-63
2023/03/23 03:11:53;;;;;;;;;5.00;2.25;;;;;13.68;60.88;100160.50;4984364;27;45444;-63
2023/03/23 03:14:29;;;;;;;;;4.25;3.25;;;;;13.66;60.26;100155.28;5012116;28;45343;-63
2023/03/23 03:17:13;;;;;;;;;1.50;1.50;;;;;13.70;60.52;100151.63;4996988;28;45323;-63
2023/03/23 03:19:44;;;;;;;;;2.00;2.00;;;;;13.69;60.41;100144.59;4993054;27;46400;-63
2023/03/23 03:22:11;;;;;;;;;4.00;2.00;;;;;13.69;60.44;100143.75;4988026;28;45471;-64
2023/03/23 03:24:37;;;;;;;;;3.50;2.00;;;;;13.64;60.41;100138.63;4996480;28;45415;-64
2023/03/23 03:27:06;;;;;;;;;2.00;2.00;;;;;13.60;60.75;100124.69;4996463;28;45351;-63
2023/03/23 03:29:37;;;;;;;;;4.00;3.75;;;;;13.70;60.85;100138.41;4996343;28;47226;-64
2023/03/23 03:32:07;;;;;;;;;2.00;2.00;;;;;13.71;60.65;100147.19;4996500;28;45212;-63
2023/03/23 03:34:33;;;;;;;;;3.25;2.75;;;;;13.69;60.51;100165.72;4999305;28;45397;-63
2023/03/23 03:37:00;;;;;;;;;3.00;2.00;;;;;13.70;60.56;100151.63;4999548;28;45434;-63
2023/03/23 03:39:26;;;;;;;;;2.75;2.75;;;;;13.71;60.82;100136.63;4999375;28;45390;-63
2023/03/23 03:41:52;;;;;;;;;2.25;2.25;;;;;13.67;60.45;100142.94;4999410;28;45228;-64
2023/03/23 03:44:17;;;;;;;;;2.00;1.75;;;;;13.63;60.59;100158.91;4999608;28;45338;-64
2023/03/23 03:46:43;;;;;;;;;2.00;2.00;;;;;13.66;60.63;100147.38;4999732;28;45267;-64
2023/03/23 03:49:13;;;;;;;;;2.00;2.00;;;;;13.65;60.81;100148.28;4999207;28;46123;-64
2023/03/23 03:51:40;;;;;;;;;2.75;2.25;;;;;13.64;60.77;100144.75;4999079;28;45472;-64
2023/03/23 03:54:06;;;;;;;;;3.50;2.00;;;;;13.65;60.54;100138.56;4999302;28;45374;-64
2023/03/23 03:56:34;;;;;;;;;2.00;2.00;;;;;13.67;60.72;100140.31;4998065;27;45529;-64
2023/03/23 03:59:00;;;;;;;;;2.75;2.75;;;;;13.64;60.80;100150.03;4999316;28;47142;-64
2023/03/23 04:01:25;;;;;;;;;1.00;1.00;;;;;13.65;60.96;100135.94;4999404;28;45422;-64
2023/03/23 04:03:51;;;;;;;;;2.00;2.00;;;;;13.64;60.81;100142.13;4999735;28;45415;-64
2023/03/23 04:06:17;;;;;;;;;1.00;1.00;;;;;13.64;60.81;100138.63;4999349;28;45636;-64
2023/03/23 04:08:42;;;;;;;;;2.00;1.00;;;;;13.62;61.09;100159.81;4999065;28;47102;-64
2023/03/23 04:11:10;;;;;;;;;2.25;2.00;;;;;13.67;61.13;100164.91;5014320;28;45403;-64
2023/03/23 04:13:35;;;;;;;;;4.00;2.00;;;;;13.64;61.04;100165.88;4999534;28;45299;-64
2023/03/23 04:16:01;;;;;;;;;2.50;2.00;;;;;13.63;61.13;100172.09;4999216;28;45389;-64
2023/03/23 04:18:27;;;;;;;;;2.75;2.75;;;;;13.64;60.92;100176.44;4999207;28;47230;-64
2023/03/23 04:20:52;;;;;;;;;1.00;1.00;;;;;13.64;60.94;100179.09;4985958;27;45263;-64
2023/03/23 04:23:22;;;;;;;;;3.75;3.00;;;;;13.65;60.87;100186.09;4998962;28;46511;-64
2023/03/23 04:25:49;;;;;;;;;3.00;3.00;;;;;13.66;60.97;100173.78;4999104;28;45330;-65
2023/03/23 04:28:18;;;;;;;;;3.25;3.25;;;;;13.63;61.12;100172.09;4998780;28;46153;-64
2023/03/23 04:30:44;;;;;;;;;1.50;1.25;;;;;13.69;60.92;100184.22;4999163;28;45589;-64
2023/03/23 04:33:14;;;;;;;;;3.00;3.00;;;;;13.65;60.98;100180.81;4999297;28;45321;-64
2023/03/23 04:35:45;;;;;;;;;3.50;2.00;;;;;13.63;61.02;100190.59;5013896;28;45526;-64
2023/03/23 04:38:11;;;;;;;;;3.00;3.00;;;;;13.62;60.87;100167.75;4998704;28;46218;-64
2023/03/23 04:40:39;;;;;;;;;1.00;1.00;;;;;13.55;61.21;100173.31;4998707;28;45453;-64
2023/03/23 04:43:05;;;;;;;;;2.00;2.00;;;;;13.65;61.51;100179.97;4999019;28;45419;-64
2023/03/23 04:45:32;;;;;;;;;3.00;3.00;;;;;13.65;61.29;100188.75;4997639;28;45353;-64
2023/03/23 04:47:57;;;;;;;;;3.00;2.00;;;;;13.61;61.15;100195.06;4998584;28;46366;-64
2023/03/23 04:50:26;;;;;;;;;0.00;0.00;;;;;13.62;61.33;100195.91;4998675;28;45364;-64
2023/03/23 04:52:53;;;;;;;;;1.75;1.75;;;;;13.67;61.21;100198.38;4999018;28;45362;-64
2023/03/23 04:55:20;;;;;;;;;3.00;3.00;;;;;13.68;61.26;100200.13;4998474;28;45318;-64
2023/03/23 04:57:47;;;;;;;;;3.00;2.00;;;;;13.70;61.17;100208.81;4997503;28;48160;-64
2023/03/23 05:00:14;;;;;;;;;3.50;2.25;;;;;13.67;60.88;100201.03;4998547;28;45218;-64
2023/03/23 05:02:40;;;;;;;;;6.75;6.75;;;;;13.63;61.12;100206.44;4998902;28;45371;-64
2023/03/23 05:05:11;;;;;;;;;4.00;2.00;;;;;13.62;61.32;100207.34;4998687;28;45227;-64
2023/03/23 05:07:38;;;;;;;;;4.00;3.00;;;;;13.60;61.58;100216.22;4997183;28;46112;-64
2023/03/23 05:10:05;;;;;;;;;3.00;2.00;;;;;13.63;61.33;100211.72;4998397;28;45375;-64
2023/03/23 05:12:30;;;;;;;;;4.00;1.75;;;;;13.64;60.96;100217.84;4984622;28;45291;-64
2023/03/23 05:14:56;;;;;;;;;2.00;2.00;;;;;13.63;61.01;100205.56;4999971;28;45435;-64
2023/03/23 05:17:23;;;;;;;;;2.00;2.00;;;;;13.60;61.09;100232.06;4990809;27;46492;-64
2023/03/23 05:19:49;;;;;;;;;2.25;2.25;;;;;13.68;61.38;100200.13;4991183;27;45943;-64
2023/03/23 05:22:15;;;;;;;;;2.25;1.25;;;;;13.65;61.42;100199.28;4991845;28;45488;-65
2023/03/23 05:24:42;;;;;;;;;5.25;4.50;;;;;13.68;61.22;100206.25;4991040;28;45706;-64
2023/03/23 05:27:10;;;;;;;;;2.50;2.50;;;;;13.69;60.78;100209.75;4990343;27;45642;-64
2023/03/23 05:29:36;;;;;;;;;3.00;2.00;;;;;13.67;61.47;100208.94;4989818;28;45314;-64
2023/03/23 05:32:05;;;;;;;;;3.00;3.00;;;;;13.72;61.19;100193.81;4990716;27;45865;-64
2023/03/23 05:34:32;;;;;;;;;2.00;2.00;;;;;13.65;61.16;100191.38;4990326;27;45569;-64
2023/03/23 05:36:58;;;;;;;;;5.00;2.25;;;;;13.64;61.45;100202.84;4990280;27;45908;-64
2023/03/23 05:39:24;;;;;;;;;2.25;2.25;;;;;13.65;61.18;100193.16;5004934;28;45876;-64
2023/03/23 05:41:50;;;;;;;;;2.50;1.25;;;;;13.67;61.24;100217.72;4990765;28;45230;-64
2023/03/23 05:44:15;;;;;;;;;1.50;1.50;;;;;13.69;61.27;100204.50;5016130;27;45480;-64
2023/03/23 05:46:41;;;;;;;;;3.25;2.50;;;;;13.67;61.41;100203.66;5041483;28;46126;-64
2023/03/23 05:49:07;;;;;;;;;2.00;2.00;;;;;13.70;61.37;100217.63;5016171;28;45537;-64
2023/03/23 05:51:33;;;;;;;;;3.75;3.00;;;;;13.66;61.39;100205.47;5017963;28;45352;-64
2023/03/23 05:53:58;;;;;;;;;3.00;3.00;;;;;13.68;61.54;100203.59;5016456;28;45481;-64
2023/03/23 05:56:24;;;;;;;;;4.50;2.25;;;;;13.69;61.39;100209.75;4998003;28;46886;-64
2023/03/23 05:58:50;;;;;;;;;3.00;2.00;;;;;13.69;61.47;100215.03;5004710;28;45283;-64
2023/03/23 06:01:16;;;;;;;;;2.00;2.00;;;;;13.66;61.08;100205.47;5003511;28;45351;-64
2023/03/23 06:03:41;;;;;;;;;1.00;1.00;;;;;13.63;61.36;100202.91;4998204;28;45496;-64
2023/03/23 06:06:11;;;;;;;;;2.50;2.50;;;;;13.63;61.65;100216.09;5011213;28;45322;-64
2023/03/23 06:08:37;;;;;;;;;4.50;3.75;;;;;13.61;61.73;100217.94;5017692;28;45261;-64
2023/03/23 06:11:02;;;;;;;;;3.00;3.00;;;;;13.60;61.79;100222.38;5017555;28;45381;-64
2023/03/23 06:13:28;;;;;;;;;2.00;2.00;;;;;13.60;61.49;100217.09;5017710;28;45295;-64
2023/03/23 06:15:57;;;;;;;;;2.50;2.50;;;;;13.61;62.04;100215.28;5017478;28;45346;-65
2023/03/23 06:18:23;;;;;;;;;2.00;1.00;;;;;13.58;61.86;100210.13;5017646;28;45290;-64
2023/03/23 06:20:50;;;;;;;;;2.75;2.75;;;;;13.58;61.43;100216.25;4991142;27;45318;-65
2023/03/23 06:23:16;;;;;;;;;3.00;3.00;;;;;13.61;61.87;100223.22;4997596;28;45514;-64
2023/03/23 06:25:42;;;;;;;;;3.00;2.25;;;;;13.54;61.52;100205.88;5012666;28;47110;-64
2023/03/23 06:28:09;;;;;;;;;4.75;4.00;;;;;13.56;61.81;100211.94;4996017;28;45526;-64
2023/03/23 06:30:45;;;;;;;;;2.00;2.00;;;;;13.54;61.77;100229.66;4996308;28;45401;-67
2023/03/23 06:33:11;;;;;;;;;1.75;1.00;;;;;13.55;61.75;100212.91;4997735;28;45512;-67
2023/03/23 06:35:36;;;;;;;;;4.50;3.50;;;;;13.54;61.97;100219.09;4997308;28;46042;-67
2023/03/23 06:38:02;;;;;;;;;5.50;4.00;;;;;13.54;61.86;100219.94;5012747;28;45315;-67
2023/03/23 06:40:28;;;;;;;;;4.25;3.75;;;;;13.55;61.73;100210.25;4997501;28;45321;-62
2023/03/23 06:42:56;;;;;;;;;3.00;3.00;;;;;13.59;61.92;100222.44;5012748;27;45253;-63
2023/03/23 06:45:21;;;;;;;;;4.50;4.50;;;;;13.56;62.05;100214.59;4993351;28;46438;-64
2023/03/23 06:47:53;;;;;;;;;2.00;1.00;;;;;13.55;62.06;100210.25;4997446;28;45618;-64
2023/03/23 06:50:18;;;;;;;;;2.75;2.75;;;;;13.55;62.38;100232.22;5012624;28;45352;-64
2023/03/23 06:52:52;;;;;;;;;4.25;3.50;;;;;13.56;61.95;100260.34;4995818;28;45430;-64
2023/03/23 06:55:17;;;;;;;;;4.50;4.50;;;;;13.56;62.17;100257.72;4996910;28;45325;-64
2023/03/23 06:57:44;;;;;;;;;3.25;2.25;;;;;13.55;62.14;100255.97;4997374;28;45230;-66
2023/03/23 07:00:13;;;;;;;;;4.75;4.00;;;;;13.56;61.84;100252.44;4997180;28;45580;-67
2023/03/23 07:02:48;;;;;;;;;4.00;4.00;;;;;13.55;61.76;100236.66;4997012;28;45467;-63
2023/03/23 07:05:14;;;;;;;;;4.00;4.00;;;;;13.53;62.06;100230.56;4983839;28;45470;-64
2023/03/23 07:07:40;;;;;;;;;4.00;4.00;;;;;13.55;62.42;100258.63;4996565;28;45440;-64
2023/03/23 07:10:11;;;;;;;;;5.00;4.00;;;;;13.55;61.86;100255.13;5003150;28;45547;-63
2023/03/23 07:12:36;;;;;;;;;3.75;3.00;;;;;13.56;61.92;100286.75;5003069;28;45395;-64
2023/03/23 07:15:09;;;;;;;;;5.25;5.00;;;;;13.56;61.86;100267.38;5018307;28;47005;-63
2023/03/23 07:17:34;;;;;;;;;4.00;4.00;;;;;13.58;62.14;100266.41;5001917;28;45473;-64
2023/03/23 07:20:00;;;;;;;;;3.75;3.75;;;;;13.57;62.06;100272.63;4996177;27;45682;-64
2023/03/23 07:22:25;;;;;;;;;5.75;3.75;;;;;13.56;61.99;100288.50;4997024;27;45224;-64
2023/03/23 07:24:50;;;;;;;;;3.75;3.00;;;;;13.59;62.05;100257.59;5002977;27;46965;-65
2023/03/23 07:27:16;;;;;;;;;7.25;5.00;;;;;13.59;61.60;100265.50;5002617;27;56735;-65
2023/03/23 07:29:47;;;;;;;;;3.00;3.00;;;;;13.64;61.60;100270.66;5003805;28;45416;-65
2023/03/23 07:32:16;;;;;;;;;1.75;1.75;;;;;13.61;61.66;100268.09;5019371;28;45544;-63
2023/03/23 07:34:43;;;;;;;;;5.00;5.00;;;;;13.65;62.09;100270.59;5002674;28;45476;-64
2023/03/23 07:37:09;;;;;;;;;6.25;4.00;;;;;13.68;62.12;100287.25;5018275;28;45501;-64
2023/03/23 07:39:36;;;;;;;;;3.50;3.50;;;;;13.63;61.65;100264.50;5002976;28;45308;-64
2023/03/23 07:42:01;;;;;;;;;4.75;3.25;;;;;13.65;61.77;100267.94;5002458;27;45436;-64
2023/03/23 07:44:27;;;;;;;;;5.00;3.00;;;;;13.68;61.56;100261.69;5002884;28;45296;-64
2023/03/23 07:46:52;;;;;;;;;4.00;4.00;;;;;13.68;61.41;100269.63;5002275;28;45349;-64
2023/03/23 07:49:18;;;;;;;;;2.75;2.75;;;;;13.72;61.45;100283.56;5002796;28;45399;-64
2023/03/23 07:51:44;;;;;;;;;4.50;4.00;;;;;13.71;61.41;100293.28;5018200;28;45264;-66
2023/03/23 07:54:10;;;;;;;;;5.25;4.25;;;;;13.73;61.87;100291.44;5021288;28;45302;-65
2023/03/23 07:56:36;;;;;;;;;3.00;3.00;;;;;13.76;61.21;100294.00;5003912;28;45711;-67
2023/03/23 07:59:04;;;;;;;;;1.75;1.75;;;;;13.72;61.46;100278.28;5022914;28;45343;-67
2023/03/23 08:01:30;;;;;;;;;2.75;2.75;;;;;13.71;61.14;100298.56;5022498;28;45452;-65
2023/03/23 08:03:57;;;;;;;;;4.00;3.25;;;;;13.73;61.39;100309.06;5007619;27;46230;-64
2023/03/23 08:06:23;;;;;;;;;3.00;3.00;;;;;13.72;61.18;100283.56;5018339;28;45356;-63
2023/03/23 08:08:49;;;;;;;;;4.75;3.00;;;;;13.74;61.55;100293.16;4994396;28;45653;-64
2023/03/23 08:11:15;;;;;;;;;4.25;2.75;;;;;13.75;61.22;100304.63;5003340;28;45630;-63
2023/03/23 08:13:41;;;;;;;;;2.00;2.00;;;;;13.75;61.50;100294.06;4996610;28;47168;-63
2023/03/23 08:16:09;;;;;;;;;4.25;4.25;;;;;13.84;60.80;100292.88;5004376;28;45519;-64
2023/03/23 08:18:35;;;;;;;;;4.25;4.00;;;;;13.85;60.80;100302.50;5012644;28;45449;-63
2023/03/23 08:21:01;;;;;;;;;5.00;4.50;;;;;13.85;60.87;100297.22;4989469;28;45431;-64
2023/03/23 08:23:26;;;;;;;;;3.00;3.00;;;;;13.89;61.25;100286.50;5014048;28;46851;-63
2023/03/23 08:25:53;;;;;;;;;4.25;2.25;;;;;13.91;60.88;100289.06;5000418;27;45234;-63
2023/03/23 08:28:19;;;;;;;;;5.00;3.50;;;;;13.90;61.14;100293.50;4991523;27;46119;-65
2023/03/23 08:30:44;;;;;;;;;3.75;3.50;;;;;13.94;60.53;100295.13;4988034;28;46392;-64
2023/03/23 08:33:10;;;;;;;;;3.50;3.00;;;;;13.92;60.78;100296.97;4992134;27;46719;-65
2023/03/23 08:35:36;;;;;;;;;2.75;2.75;;;;;13.94;60.91;100318.88;5006201;27;45723;-66
2023/03/23 08:38:02;;;;;;;;;3.00;3.00;;;;;13.98;60.52;100306.44;4989650;27;45501;-64
2023/03/23 08:40:28;;;;;;;;;1.75;1.75;;;;;13.96;60.59;100301.22;4991166;28;45464;-64
2023/03/23 08:42:54;;;;;;;;;3.00;3.00;;;;;13.97;60.79;100289.75;4984941;27;45754;-64
2023/03/23 08:45:22;;;;;;;;;2.00;1.50;;;;;13.99;60.66;100308.16;4991819;28;45873;-63
2023/03/23 08:47:51;;;;;;;;;2.00;2.00;;;;;14.00;60.43;100298.44;4992650;28;45890;-63
2023/03/23 08:50:19;;;;;;;;;3.00;3.00;;;;;14.04;60.92;100297.44;4991609;28;45471;-63
2023/03/23 08:52:45;;;;;;;;;1.25;1.25;;;;;14.03;60.77;100298.38;5009632;28;47292;-63
2023/03/23 08:55:12;;;;;;;;;4.50;3.50;;;;;14.07;60.78;100299.97;4992411;28;45464;-63
2023/03/23 08:57:38;;;;;;;;;3.50;3.50;;;;;14.07;60.59;100295.53;4991820;28;45452;-64
2023/03/23 09:00:19;;;;;;;;;3.75;3.00;;;;;14.12;60.20;100298.03;4991879;28;46647;-63
2023/03/23 09:02:49;;;;;;;;;4.00;2.75;;;;;14.22;60.10;100323.19;4990116;28;46114;-64
2023/03/23 09:05:17;;;;;;;;;4.00;4.00;;;;;14.19;59.95;100304.81;4989424;27;45487;-64
2023/03/23 09:07:45;;;;;;;;;6.00;4.00;;;;;14.20;60.39;100329.44;4991427;28;45516;-64
2023/03/23 09:10:13;;;;;;;;;4.25;3.00;;;;;14.19;60.20;100301.28;5026056;28;45502;-65
2023/03/23 09:12:39;;;;;;;;;4.00;3.75;;;;;14.21;60.22;100295.03;4984622;28;45883;-65
2023/03/23 09:15:08;;;;;;;;;2.00;2.00;;;;;14.20;60.06;100297.75;4993636;28;45374;-65
2023/03/23 09:17:47;;;;;;;;;4.25;4.00;;;;;14.18;60.07;100318.94;5006050;27;45829;-65
2023/03/23 09:20:15;;;;;;;;;5.50;4.00;;;;;14.25;59.80;100309.00;4985940;27;45549;-64
2023/03/23 09:22:45;;;;;;;;;3.75;3.75;;;;;14.24;59.73;100326.66;4987231;28;46255;-64
2023/03/23 09:25:13;;;;;;;;;6.50;3.00;;;;;14.21;60.32;100295.03;4987989;28;45555;-64
2023/03/23 09:27:40;;;;;;;;;4.75;3.50;;;;;14.23;60.19;100290.56;4991376;27;46257;-64
2023/03/23 09:30:07;;;;;;;;;5.75;4.00;;;;;14.33;59.57;100292.88;5008062;27;45580;-64
2023/03/23 09:32:37;;;;;;;;;4.75;3.50;;;;;14.35;59.82;100285.75;4990032;27;45400;-64
2023/03/23 09:35:04;;;;;;;;;5.75;5.00;;;;;14.37;60.13;100294.50;4991424;28;46646;-61
2023/03/23 09:37:30;;;;;;;;;5.50;4.25;;;;;14.45;59.60;100295.06;4990137;28;45415;-62
2023/03/23 09:39:55;;;;;;;;;5.50;5.50;;;;;14.46;59.95;100268.59;4991504;28;45528;-62
2023/03/23 09:42:40;;;;;;;;;3.50;3.50;;;;;14.53;59.59;100300.06;4982828;27;46158;-62
2023/03/23 09:45:11;;;;;;;;;2.25;2.00;;;;;14.56;59.73;100298.16;5022159;28;45426;-63
2023/03/23 09:48:13;;;;;;;;;4.00;1.50;;;;;14.55;59.60;100292.94;4989793;28;45495;-61
2023/03/23 09:50:43;;;;;;;;;1.75;1.75;;;;;14.59;59.45;100313.03;4989207;28;45774;-62
2023/03/23 09:53:16;;;;;;;;;5.50;4.50;;;;;14.53;59.67;100292.16;4992357;28;46460;-63
2023/03/23 09:55:42;;;;;;;;;5.75;4.00;;;;;14.68;59.88;100325.09;5024012;28;45568;-63
2023/03/23 09:58:39;;;;;;;;;5.50;2.50;;;;;14.69;59.76;100318.88;5008591;28;45602;-63
2023/03/23 10:01:17;;;;;;;;;5.25;3.00;;;;;14.76;59.45;100320.38;5022791;28;45822;-63
2023/03/23 10:03:45;;;;;;;;;6.25;6.25;;;;;14.79;59.57;100294.69;5006334;28;47364;-63
2023/03/23 10:06:15;;;;;;;;;3.50;2.50;;;;;14.86;59.59;100328.81;4990985;28;45393;-63
2023/03/23 10:08:54;;;;;;;;;1.25;0.50;;;;;14.90;58.99;100322.50;4990655;27;45408;-63
2023/03/23 10:11:22;;;;;;;;;4.25;2.50;;;;;14.92;59.09;100313.56;4988699;27;45631;-64
2023/03/23 10:14:13;;;;;;;;;3.50;2.25;;;;;14.97;58.83;100301.94;4986185;28;45397;-64
2023/03/23 10:16:56;;;;;;;;;2.75;1.50;;;;;15.02;58.95;100314.06;4990147;27;45467;-63
2023/03/23 10:19:47;;;;;;;;;4.75;2.25;;;;;15.02;58.86;100300.84;4988656;27;45408;-63
2023/03/23 10:22:16;;;;;;;;;4.25;3.25;;;;;15.03;59.05;100312.28;4989724;28;45511;-63
2023/03/23 10:24:50;;;;;;;;;3.50;3.50;;;;;15.10;58.56;100319.91;4989075;28;47306;-61
2023/03/23 10:27:26;;;;;;;;;4.25;2.25;;;;;15.16;58.34;100294.16;4987442;27;45243;-63
2023/03/23 10:30:03;;;;;;;;;6.75;3.50;;;;;15.22;58.34;100315.94;4990341;28;45469;-63
2023/03/23 10:32:49;;;;;;;;;8.75;6.50;;;;;15.25;58.58;100318.44;4989879;28;45385;-63
2023/03/23 10:35:19;;;;;;;;;5.50;3.75;;;;;15.24;58.73;100316.75;4990495;28;45591;-63
2023/03/23 10:37:53;;;;;;;;;6.50;4.00;;;;;15.39;58.51;100314.38;4986521;28;45920;-63
2023/03/23 10:40:26;;;;;;;;;4.75;3.50;;;;;15.39;58.51;100306.44;5004087;27;45406;-64
2023/03/23 10:42:53;;;;;;;;;4.25;3.00;;;;;15.43;58.32;100284.19;4984369;27;45392;-64
2023/03/23 10:45:25;;;;;;;;;5.75;3.75;;;;;15.53;58.22;100282.88;5001472;27;46431;-63
2023/03/23 10:48:14;;;;;;;;;3.25;2.75;;;;;15.57;58.07;100308.31;4989655;28;45459;-63
2023/03/23 10:50:43;;;;;;;;;6.75;3.50;;;;;15.58;58.17;100311.81;4989557;28;45457;-62
2023/03/23 10:53:17;;;;;;;;;6.50;3.25;;;;;15.67;58.05;100319.41;4989679;28;45431;-62
2023/03/23 10:55:44;;;;;;;;;5.25;3.75;;;;;15.74;58.20;100323.50;4988338;27;46181;-63
2023/03/23 10:58:12;;;;;;;;;7.25;3.75;;;;;15.77;58.10;100293.34;5005290;28;45366;-63
2023/03/23 11:00:47;;;;;;;;;1.75;1.25;;;;;15.77;58.12;100283.66;4989259;28;45888;-66
2023/03/23 11:03:15;;;;;;;;;5.25;3.00;;;;;15.91;58.17;100304.28;4986953;28;45559;-63
2023/03/23 11:05:52;;;;;;;;;4.50;3.00;;;;;16.00;57.87;100323.31;4989726;28;45516;-63
2023/03/23 11:08:23;;;;;;;;;2.25;2.00;;;;;16.08;57.79;100305.31;4989045;28;45496;-62
2023/03/23 11:10:55;;;;;;;;;7.25;4.25;;;;;16.12;58.10;100291.00;4989230;28;45326;-63
2023/03/23 11:13:26;;;;;;;;;3.00;2.00;;;;;16.14;58.10;100280.31;4981044;27;45419;-63
2023/03/23 11:15:52;;;;;;;;;7.25;4.50;;;;;16.27;57.61;100288.59;4988970;28;45496;-66
2023/03/23 11:18:24;;;;;;;;;6.25;5.00;;;;;16.29;57.18;100289.38;4988924;28;45540;-63
2023/03/23 11:20:54;;;;;;;;;5.00;2.50;;;;;16.33;57.41;100301.59;4988897;28;45495;-63
2023/03/23 11:23:23;;;;;;;;;4.00;3.00;;;;;16.35;57.43;100307.66;4988591;28;45442;-62
2023/03/23 11:25:56;;;;;;;;;8.50;5.00;;;;;16.44;57.30;100296.66;4988743;28;46054;-66
2023/03/23 11:28:25;;;;;;;;;3.25;3.00;;;;;16.50;57.26;100306.97;4986836;28;45544;-67
2023/03/23 11:30:55;;;;;;;;;5.00;3.75;;;;;16.60;57.41;100298.59;4986839;27;45513;-64
2023/03/23 11:33:20;;;;;;;;;4.75;3.00;;;;;16.62;57.53;100302.03;4987733;28;45595;-66